Inverness, FL (34451)

9:34 PM EDT on September 22, 2014 (GMT -0400)
Henderson Trail | Change Station
CLOSE
Current Station
Personal Weather Station
Location: Inverness, FL
Elevation: 79 ft
Nearby Weather Stations

Elev 79 ft 28.79 °N, 82.29 °W | Updated 2 seconds ago

Rain
Rain
74.7 °F
Feels Like 74 °F
N
0.7
Wind Variable Wind from SE
Gusts 1.6 mph

Today
High -- | Low -- °F
--% Chance of Precip.
Yesterday
High -- | Low -- °F
Precip. -- in
7:17 AM 7:25 PM
Waning Crescent, 1% visible
Pressure 30.03 in
Visibility 10.0 miles
Clouds Overcast 700 ft
Heat Index 74 °F
Dew Point 14 °F
Humidity 10%
Rainfall 0.07 in
Snow Depth Not available.
UV 0 out of 12
Pollen 2.10 out of 12
Air Quality Not available.
Flu Activity Not available.
METAR KINF 230115Z AUTO 17004KT 10SM VCTSRA OVC007 23/21 A3003 RMK AO2 LTG DSNT SW THRU N P0003

More Conditions Fewer Conditions

Pressure 30.03 in
Visibility 10.0 miles
Clouds Overcast 700 ft
Heat Index 74 °F
Dew Point 14 °F
Humidity 10%
Rainfall 0.07 in
Snow Depth Not available.
UV 0 out of 12
Pollen 2.10 out of 12
Air Quality Not available.
Flu Activity Not available.
METAR KINF 230115Z AUTO 17004KT 10SM VCTSRA OVC007 23/21 A3003 RMK AO2 LTG DSNT SW THRU N P0003

More Conditions Fewer Conditions

10-Day Weather Forecast

Almanac

Astronomy

Sep. 22, 2014 Rise Set
Actual Time 7:17 AM EDT 7:25 PM EDT
Civil Twilight 6:54 AM EDT 7:49 PM EDT
Nautical Twilight 6:26 AM EDT 8:16 PM EDT
Astronomical Twilight 5:58 AM EDT 8:44 PM EDT
Moon 5:50 AM EDT (9/22) 6:29 PM EDT (9/22)
Length of Visible Light 12h 55m
Length of Day
12h 08m
Tomorrow will be 1m 43s shorter.
Waning Crescent, 1% of the Moon is Illuminated
Today
Waning Crescent
Sep 24
New
Oct 1
First Quarter
Oct 8
Full
Oct 15
Last Quarter

Today's Extremes

State Highs State Lows

Community

WunderPhotos

Upload Photos

1,755,578 photos uploaded!

Nearby

Snow Depth

Station Depth Elevation
No new snow has been reported.

Earthquake Activity

City Distance Mag. Time & Date
No recent earthquake activity has been reported nearby.
Minimum magnitude displayed is 2.5.

Coastal Water Temperatures

Place Temperature
No Stations Reporting

Nearby Weather Stations